Time;durP1;ratioP1;P1;durP2;ratioP2;P2;SDS_P1;SDS_P2;PMS_P1;PMS_P2;Temp;Humidity;BMP_temperature;BMP_pressure;BME280_temperature;BME280_humidity;BME280_pressure;Samples;Min_cycle;Max_cycle;Signal;HPM_P1;HPM_P2
2020/12/26 00:00:41;;;;;;;3.20;2.27;;;3.20;99.90;;;;;;4997934;28;20545;-74
2020/12/26 00:03:08;;;;;;;4.33;1.63;;;3.30;99.90;;;;;;4995364;28;20513;-74
2020/12/26 00:05:38;;;;;;;4.20;1.47;;;3.20;99.90;;;;;;4992062;28;20455;-74
2020/12/26 00:08:04;;;;;;;2.20;1.77;;;3.20;99.90;;;;;;4979196;28;20447;-74
2020/12/26 00:10:31;;;;;;;3.73;1.40;;;3.20;99.90;;;;;;4991065;28;20446;-74
2020/12/26 00:12:57;;;;;;;3.43;1.87;;;3.20;99.90;;;;;;4998093;28;20504;-73
2020/12/26 00:15:24;;;;;;;7.23;2.23;;;3.30;99.90;;;;;;4998465;28;20466;-74
2020/12/26 00:17:50;;;;;;;3.90;1.83;;;3.20;99.90;;;;;;4999128;28;20468;-73
2020/12/26 00:20:19;;;;;;;1.83;1.53;;;3.20;99.90;;;;;;5001154;28;20458;-73
2020/12/26 00:22:46;;;;;;;4.60;1.80;;;3.10;99.90;;;;;;4990578;28;20542;-74
2020/12/26 00:25:12;;;;;;;5.47;1.87;;;3.10;99.90;;;;;;4979301;28;20489;-74
2020/12/26 00:27:39;;;;;;;2.60;1.63;;;3.10;99.90;;;;;;4978133;28;20565;-75
2020/12/26 00:30:06;;;;;;;2.30;1.63;;;3.00;99.90;;;;;;4980184;28;20486;-74
2020/12/26 00:32:33;;;;;;;6.87;2.13;;;3.00;99.90;;;;;;4983696;28;20771;-73
2020/12/26 00:34:59;;;;;;;2.80;1.60;;;3.00;99.90;;;;;;4978242;28;20453;-74
2020/12/26 00:37:26;;;;;;;2.83;2.17;;;2.90;99.90;;;;;;4977783;28;20968;-74
2020/12/26 00:39:53;;;;;;;4.90;2.10;;;2.90;99.90;;;;;;4978015;28;20516;-74
2020/12/26 00:42:19;;;;;;;4.83;1.70;;;2.90;99.90;;;;;;4977599;28;20473;-74
2020/12/26 00:44:46;;;;;;;2.43;1.63;;;2.90;99.90;;;;;;4977707;28;20954;-74
2020/12/26 00:47:12;;;;;;;5.73;2.30;;;2.80;99.90;;;;;;4977807;28;20451;-74
2020/12/26 00:49:38;;;;;;;4.67;2.00;;;2.80;99.90;;;;;;4977686;28;20465;-72
2020/12/26 00:52:05;;;;;;;2.80;1.77;;;2.70;99.90;;;;;;4977641;28;20545;-74
2020/12/26 00:54:31;;;;;;;3.80;1.60;;;2.70;99.90;;;;;;4996671;28;20442;-74
2020/12/26 00:56:58;;;;;;;2.77;1.90;;;2.70;99.90;;;;;;4999428;28;20482;-74
2020/12/26 00:59:25;;;;;;;3.70;1.43;;;2.70;99.90;;;;;;4997246;28;20472;-74
2020/12/26 01:01:54;;;;;;;4.50;1.80;;;2.60;99.90;;;;;;4996795;28;21034;-74
2020/12/26 01:04:21;;;;;;;2.60;1.53;;;2.50;99.90;;;;;;4996590;28;20572;-76
2020/12/26 01:06:53;;;;;;;11.43;1.90;;;2.50;99.90;;;;;;4996552;28;20566;-74
2020/12/26 01:09:19;;;;;;;4.83;2.07;;;2.60;99.90;;;;;;4996652;28;20592;-74
2020/12/26 01:11:45;;;;;;;4.37;2.60;;;2.60;99.90;;;;;;4996666;28;20522;-74
2020/12/26 01:14:12;;;;;;;4.90;1.80;;;2.60;99.90;;;;;;4996889;28;20903;-74
2020/12/26 01:16:39;;;;;;;7.50;2.10;;;2.60;99.90;;;;;;4996831;28;20956;-73
2020/12/26 01:19:05;;;;;;;5.17;1.80;;;2.60;99.90;;;;;;4996693;28;20901;-74
2020/12/26 01:21:32;;;;;;;14.23;3.20;;;2.50;99.90;;;;;;4999237;28;20769;-73
2020/12/26 01:23:58;;;;;;;4.93;2.20;;;2.50;99.90;;;;;;4998242;28;20486;-74
2020/12/26 01:26:24;;;;;;;4.00;1.73;;;2.50;99.90;;;;;;4996420;28;20457;-73
2020/12/26 01:28:51;;;;;;;6.07;2.37;;;2.50;99.90;;;;;;4996119;28;20585;-74
2020/12/26 01:31:19;;;;;;;7.97;1.70;;;2.50;99.90;;;;;;4995483;28;20453;-73
2020/12/26 01:33:45;;;;;;;3.27;1.73;;;2.50;99.90;;;;;;4996192;28;20450;-75
2020/12/26 01:36:12;;;;;;;4.20;1.30;;;2.50;99.90;;;;;;4996287;28;20461;-74
2020/12/26 01:38:39;;;;;;;4.13;1.90;;;2.50;99.90;;;;;;4996660;28;20445;-74
2020/12/26 01:41:05;;;;;;;6.63;1.70;;;2.50;99.90;;;;;;4996286;28;20457;-73
2020/12/26 01:43:32;;;;;;;3.53;1.97;;;2.50;99.90;;;;;;4978775;28;20550;-74
2020/12/26 01:45:58;;;;;;;5.93;2.20;;;2.60;99.90;;;;;;4979540;28;20450;-73
2020/12/26 01:48:26;;;;;;;2.63;2.43;;;2.70;99.90;;;;;;4980495;28;20566;-73
2020/12/26 01:50:53;;;;;;;2.70;1.70;;;2.60;99.90;;;;;;4976561;28;20546;-73
2020/12/26 01:53:20;;;;;;;3.67;1.70;;;2.60;99.90;;;;;;4976921;28;20594;-74
2020/12/26 01:55:48;;;;;;;3.40;1.60;;;2.60;99.90;;;;;;4976708;28;20455;-74
2020/12/26 01:58:15;;;;;;;6.73;1.50;;;2.60;99.90;;;;;;4982002;28;20458;-74
2020/12/26 02:00:42;;;;;;;5.67;1.77;;;2.70;99.90;;;;;;4996395;28;20450;-74
2020/12/26 02:03:09;;;;;;;3.57;1.70;;;2.70;99.90;;;;;;4996729;28;20588;-73
2020/12/26 02:05:37;;;;;;;2.40;1.73;;;2.70;99.90;;;;;;5004826;28;20497;-73
2020/12/26 02:08:04;;;;;;;4.83;2.20;;;2.70;99.90;;;;;;5006119;28;20506;-74
2020/12/26 02:10:32;;;;;;;3.50;2.00;;;2.70;99.90;;;;;;4996432;28;20461;-74
2020/12/26 02:12:59;;;;;;;3.77;2.07;;;2.60;99.90;;;;;;4998313;28;20809;-75
2020/12/26 02:15:25;;;;;;;4.73;2.60;;;2.60;99.90;;;;;;4997607;28;20533;-74
2020/12/26 02:17:52;;;;;;;3.97;1.90;;;2.60;99.90;;;;;;4996155;28;20458;-74
2020/12/26 02:20:18;;;;;;;2.17;1.70;;;2.60;99.90;;;;;;4995728;28;20545;-74
2020/12/26 02:22:47;;;;;;;3.43;1.70;;;2.60;99.90;;;;;;4995803;28;20456;-73
2020/12/26 02:25:14;;;;;;;4.43;1.70;;;2.60;99.90;;;;;;4995515;28;20541;-73
2020/12/26 02:27:41;;;;;;;2.83;1.47;;;2.60;99.90;;;;;;4995404;28;21021;-74
2020/12/26 02:30:07;;;;;;;2.23;1.40;;;2.60;99.90;;;;;;4995313;28;20469;-74
2020/12/26 02:32:33;;;;;;;2.87;1.80;;;2.50;99.90;;;;;;4995170;28;20446;-74
2020/12/26 02:35:00;;;;;;;3.30;1.80;;;2.40;99.90;;;;;;4994716;28;20519;-75
2020/12/26 02:37:26;;;;;;;3.00;1.43;;;2.50;99.90;;;;;;4997113;28;20480;-73
2020/12/26 02:39:53;;;;;;;2.60;1.57;;;2.50;99.90;;;;;;4998698;28;20533;-74
2020/12/26 02:42:20;;;;;;;2.60;1.47;;;2.50;99.90;;;;;;4995528;28;20453;-73
2020/12/26 02:44:47;;;;;;;2.53;1.93;;;2.50;99.90;;;;;;4995072;28;20513;-73
2020/12/26 02:47:13;;;;;;;1.67;1.33;;;2.50;99.90;;;;;;4995686;28;20460;-73
2020/12/26 02:49:40;;;;;;;4.40;1.33;;;2.50;99.90;;;;;;4995307;28;20493;-73
2020/12/26 02:52:06;;;;;;;3.40;2.07;;;2.60;99.90;;;;;;4995295;28;20461;-73
2020/12/26 02:54:32;;;;;;;1.60;1.40;;;2.70;99.90;;;;;;4995337;28;20442;-74
2020/12/26 02:56:59;;;;;;;2.07;1.40;;;2.60;99.90;;;;;;4995136;28;20465;-73
2020/12/26 02:59:26;;;;;;;3.33;2.30;;;2.70;99.90;;;;;;4980919;28;20913;-73
2020/12/26 03:01:52;;;;;;;8.23;2.00;;;2.70;99.90;;;;;;4975910;28;20548;-73
2020/12/26 03:04:19;;;;;;;2.00;1.57;;;2.60;99.90;;;;;;4980072;28;20550;-74
2020/12/26 03:06:45;;;;;;;6.17;2.47;;;2.60;99.90;;;;;;4977666;28;20442;-73
2020/12/26 03:09:12;;;;;;;2.93;1.73;;;2.60;99.90;;;;;;4975746;28;20510;-74
2020/12/26 03:11:38;;;;;;;7.93;1.70;;;2.60;99.90;;;;;;4975481;28;20446;-74
2020/12/26 03:14:04;;;;;;;5.20;2.30;;;2.50;99.90;;;;;;4975629;28;20670;-74
2020/12/26 03:16:31;;;;;;;1.43;1.07;;;2.50;99.90;;;;;;4975275;28;20597;-74
2020/12/26 03:18:58;;;;;;;2.93;1.30;;;2.50;99.90;;;;;;4975459;28;20455;-74
2020/12/26 03:21:24;;;;;;;3.17;1.60;;;2.50;99.90;;;;;;4988327;28;20465;-75
2020/12/26 03:23:50;;;;;;;2.70;1.40;;;2.50;99.90;;;;;;4994789;28;20535;-73
2020/12/26 03:26:17;;;;;;;3.70;1.70;;;2.40;99.90;;;;;;4994993;28;20458;-75
2020/12/26 03:28:43;;;;;;;3.53;1.43;;;2.40;99.90;;;;;;4995006;28;20584;-74
2020/12/26 03:31:10;;;;;;;4.43;1.17;;;2.50;99.90;;;;;;4996690;28;20552;-74
2020/12/26 03:33:37;;;;;;;2.37;1.13;;;2.40;99.90;;;;;;4995344;28;20508;-74
2020/12/26 03:36:04;;;;;;;1.53;1.10;;;2.40;99.90;;;;;;4995234;28;20966;-74
2020/12/26 03:38:30;;;;;;;4.27;1.40;;;2.40;99.90;;;;;;4994782;28;20545;-75
2020/12/26 03:40:56;;;;;;;3.50;1.50;;;2.40;99.90;;;;;;4995199;28;20449;-74
2020/12/26 03:43:23;;;;;;;2.70;1.27;;;2.40;99.90;;;;;;4994597;28;20504;-74
2020/12/26 03:45:49;;;;;;;1.83;1.33;;;2.30;99.90;;;;;;4995578;28;20584;-73
2020/12/26 03:48:18;;;;;;;1.60;1.00;;;2.30;99.90;;;;;;4996450;28;20464;-74
2020/12/26 03:50:45;;;;;;;2.80;1.27;;;2.30;99.90;;;;;;5000631;28;20473;-75
2020/12/26 03:53:12;;;;;;;5.63;1.60;;;2.40;99.90;;;;;;5002026;28;20477;-75
2020/12/26 03:55:38;;;;;;;1.57;0.97;;;2.40;99.90;;;;;;5006963;28;20480;-74
2020/12/26 03:58:04;;;;;;;4.63;1.77;;;2.30;99.90;;;;;;4995085;28;20451;-73
2020/12/26 04:00:31;;;;;;;5.70;1.43;;;2.30;99.90;;;;;;4979031;28;20574;-75
2020/12/26 04:03:00;;;;;;;8.73;2.60;;;2.30;99.90;;;;;;4996027;23;20639;-74
2020/12/26 04:05:28;;;;;;;4.10;1.60;;;2.30;99.90;;;;;;5000820;23;20577;-75
2020/12/26 04:07:56;;;;;;;4.70;1.77;;;2.30;99.90;;;;;;4997982;28;20503;-75
2020/12/26 04:10:22;;;;;;;4.07;1.10;;;2.20;99.90;;;;;;4998333;28;21026;-73
2020/12/26 04:12:48;;;;;;;3.10;1.60;;;2.30;99.90;;;;;;4998649;28;20533;-74
2020/12/26 04:15:15;;;;;;;2.10;1.57;;;2.20;99.90;;;;;;4998550;28;20536;-74
2020/12/26 04:17:41;;;;;;;6.00;1.80;;;2.20;99.90;;;;;;4998049;28;20446;-74
2020/12/26 04:20:07;;;;;;;3.43;1.77;;;2.30;99.90;;;;;;4999747;28;20454;-73
2020/12/26 04:22:34;;;;;;;3.93;1.20;;;2.20;99.90;;;;;;5003957;28;20504;-73
2020/12/26 04:25:01;;;;;;;6.60;2.13;;;2.20;99.90;;;;;;4998323;28;20572;-74
2020/12/26 04:27:27;;;;;;;4.83;1.47;;;2.20;99.90;;;;;;4998038;28;20601;-74
2020/12/26 04:29:55;;;;;;;5.17;1.13;;;2.20;99.90;;;;;;4997739;28;20959;-74
2020/12/26 04:32:22;;;;;;;2.80;1.70;;;2.10;99.90;;;;;;4997978;28;20442;-73
2020/12/26 04:34:48;;;;;;;2.00;1.20;;;2.10;99.90;;;;;;4997490;28;20771;-74
2020/12/26 04:37:15;;;;;;;1.77;1.03;;;2.10;99.90;;;;;;4997910;28;20804;-74
2020/12/26 04:39:43;;;;;;;3.00;1.17;;;2.10;99.90;;;;;;4997680;28;20847;-73
2020/12/26 04:42:11;;;;;;;1.67;0.90;;;2.10;99.90;;;;;;4997456;28;20442;-74
2020/12/26 04:44:37;;;;;;;3.73;1.73;;;2.10;99.90;;;;;;4997291;28;20573;-73
2020/12/26 04:47:10;;;;;;;1.70;1.13;;;2.20;99.90;;;;;;4998894;28;20446;-74
2020/12/26 04:49:39;;;;;;;2.13;1.00;;;2.20;99.90;;;;;;4997242;28;20837;-74
2020/12/26 04:52:10;;;;;;;4.10;1.13;;;2.30;99.90;;;;;;4997078;28;20553;-73
2020/12/26 04:54:43;;;;;;;4.23;0.93;;;2.30;99.90;;;;;;4997587;28;20453;-72
2020/12/26 04:57:11;;;;;;;3.80;1.13;;;2.40;99.90;;;;;;4997673;28;20453;-73
2020/12/26 04:59:37;;;;;;;2.17;1.13;;;2.40;99.90;;;;;;4997287;28;20557;-73
2020/12/26 05:02:04;;;;;;;3.90;1.53;;;2.40;99.90;;;;;;4997271;28;20562;-74
2020/12/26 05:04:31;;;;;;;1.17;0.83;;;2.30;99.90;;;;;;4997112;28;20544;-74
2020/12/26 05:06:57;;;;;;;2.00;1.40;;;2.40;99.90;;;;;;4995950;28;20458;-73
2020/12/26 05:09:24;;;;;;;5.57;1.33;;;2.40;99.90;;;;;;4997194;28;20449;-74
2020/12/26 05:11:54;;;;;;;1.37;1.20;;;2.50;99.90;;;;;;4997430;28;20508;-73
2020/12/26 05:14:22;;;;;;;1.93;1.17;;;2.50;99.90;;;;;;4999262;28;20537;-74
2020/12/26 05:16:48;;;;;;;5.20;1.97;;;2.50;99.90;;;;;;4997225;28;20842;-74
2020/12/26 05:19:14;;;;;;;8.57;2.47;;;2.50;99.90;;;;;;4996663;28;20533;-73
2020/12/26 05:21:41;;;;;;;2.00;1.17;;;2.60;99.90;;;;;;4996729;28;20529;-74
2020/12/26 05:24:11;;;;;;;3.80;1.60;;;2.60;99.90;;;;;;4997453;28;21038;-73
2020/12/26 05:26:42;;;;;;;1.63;1.10;;;2.70;99.90;;;;;;4996888;28;20465;-73
2020/12/26 05:29:09;;;;;;;5.30;1.50;;;2.60;99.90;;;;;;4996575;28;20537;-75
2020/12/26 05:31:48;;;;;;;2.53;1.20;;;2.60;99.90;;;;;;4996631;28;20517;-74
2020/12/26 05:34:14;;;;;;;5.70;1.73;;;2.50;99.90;;;;;;4996238;28;20457;-73
2020/12/26 05:36:41;;;;;;;2.27;1.03;;;2.50;99.90;;;;;;4997088;28;20465;-73
2020/12/26 05:39:09;;;;;;;1.83;1.17;;;2.40;99.90;;;;;;5002609;28;20450;-73
2020/12/26 05:41:38;;;;;;;2.03;1.13;;;2.40;99.90;;;;;;5006178;28;20476;-75
2020/12/26 05:44:05;;;;;;;4.23;1.10;;;2.30;99.90;;;;;;5000026;28;20497;-74
2020/12/26 05:46:31;;;;;;;2.33;1.33;;;2.30;99.90;;;;;;4996493;28;20994;-74
2020/12/26 05:48:59;;;;;;;2.37;1.30;;;2.30;99.90;;;;;;5001401;28;20952;-73
2020/12/26 05:51:26;;;;;;;3.33;1.20;;;2.30;99.90;;;;;;5008258;28;20458;-73
2020/12/26 05:53:57;;;;;;;2.40;1.50;;;2.30;99.90;;;;;;4996306;28;20496;-73
2020/12/26 05:56:24;;;;;;;1.40;1.10;;;2.30;99.90;;;;;;4996508;28;20549;-74
2020/12/26 05:58:50;;;;;;;2.03;1.47;;;2.20;99.90;;;;;;4996369;28;20454;-74
2020/12/26 06:01:21;;;;;;;4.20;1.40;;;2.20;99.90;;;;;;4996268;28;20816;-72
2020/12/26 06:03:47;;;;;;;2.70;1.70;;;2.20;99.90;;;;;;4996144;28;20488;-74
2020/12/26 06:06:15;;;;;;;5.70;2.13;;;2.20;99.90;;;;;;4995701;28;20973;-74
2020/12/26 06:08:42;;;;;;;2.80;1.50;;;2.20;99.90;;;;;;4996105;28;20902;-74
2020/12/26 06:11:09;;;;;;;2.30;1.97;;;2.10;99.90;;;;;;4995959;28;20515;-74
2020/12/26 06:13:37;;;;;;;2.57;1.30;;;2.10;99.90;;;;;;4995883;28;20643;-74
2020/12/26 06:16:10;;;;;;;3.80;1.70;;;2.10;99.90;;;;;;4996606;28;20858;-74
2020/12/26 06:18:40;;;;;;;2.50;2.30;;;2.10;99.90;;;;;;5001851;28;20430;-74
2020/12/26 06:21:08;;;;;;;6.60;2.30;;;2.10;99.90;;;;;;4995677;28;20446;-74
2020/12/26 06:23:38;;;;;;;4.93;2.10;;;2.00;99.90;;;;;;4995578;28;20478;-74
2020/12/26 06:26:06;;;;;;;3.37;2.17;;;2.10;99.90;;;;;;4995852;28;20791;-74
2020/12/26 06:28:33;;;;;;;3.30;2.13;;;2.10;99.90;;;;;;4996262;28;20493;-74
2020/12/26 06:31:01;;;;;;;4.47;2.47;;;2.00;99.90;;;;;;4996683;28;20951;-73
2020/12/26 06:33:30;;;;;;;6.43;3.13;;;2.00;99.90;;;;;;4987738;28;20439;-74
2020/12/26 06:35:59;;;;;;;4.40;3.13;;;2.00;99.90;;;;;;5589038;23;20585;-75
2020/12/26 06:38:28;;;;;;;6.80;3.03;;;2.00;99.90;;;;;;5002275;28;20521;-73
2020/12/26 06:40:57;;;;;;;6.50;2.57;;;2.00;99.90;;;;;;4999739;28;20450;-73
2020/12/26 06:43:47;;;;;;;4.20;2.93;;;2.00;99.90;;;;;;4999808;28;20528;-75
2020/12/26 06:46:39;;;;;;;4.90;3.00;;;1.90;99.90;;;;;;5001098;28;20434;-75
2020/12/26 06:49:05;;;;;;;5.90;3.60;;;1.80;99.90;;;;;;4998350;28;20537;-74
2020/12/26 06:51:33;;;;;;;6.93;4.10;;;1.80;99.90;;;;;;4997515;28;20509;-76
2020/12/26 06:54:01;;;;;;;6.80;3.90;;;1.80;99.90;;;;;;4997174;28;20485;-74
2020/12/26 06:56:47;;;;;;;11.90;5.93;;;1.70;99.90;;;;;;5001995;28;20446;-74
2020/12/26 06:59:15;;;;;;;6.33;4.33;;;1.70;99.90;;;;;;5000724;28;20459;-75
2020/12/26 07:01:43;;;;;;;8.73;4.80;;;1.70;99.90;;;;;;5000943;28;20446;-74
2020/12/26 07:04:15;;;;;;;6.40;5.10;;;1.70;99.90;;;;;;5002086;28;20561;-75
2020/12/26 07:06:42;;;;;;;5.73;4.03;;;1.70;99.90;;;;;;5001970;28;20469;-75
2020/12/26 07:09:12;;;;;;;8.03;4.70;;;1.60;99.90;;;;;;5002445;28;20561;-74
2020/12/26 07:11:47;;;;;;;8.33;4.70;;;1.60;99.90;;;;;;4998856;28;20501;-73
2020/12/26 07:14:30;;;;;;;9.60;5.40;;;1.70;99.90;;;;;;5008757;28;20520;-75
2020/12/26 07:16:57;;;;;;;12.50;4.73;;;1.70;99.90;;;;;;5008271;28;20521;-74
2020/12/26 07:19:40;;;;;;;9.70;4.47;;;1.80;99.90;;;;;;5007338;28;20854;-73
2020/12/26 07:22:17;;;;;;;8.97;5.93;;;1.80;99.90;;;;;;5002707;28;20815;-74
2020/12/26 17:27:14;;;;;;;15.93;8.13;;;3.30;99.90;;;;;;6055207;23;20429;-60
2020/12/26 17:29:40;;;;;;;10.90;7.53;;;3.30;99.90;;;;;;4999392;28;20481;-61
2020/12/26 17:32:06;;;;;;;14.23;8.07;;;3.20;99.90;;;;;;5007903;28;20450;-59
2020/12/26 17:34:33;;;;;;;13.87;7.07;;;3.20;99.90;;;;;;5003037;28;20449;-61
2020/12/26 17:36:59;;;;;;;14.67;8.13;;;3.10;99.90;;;;;;5008850;28;20489;-60
2020/12/26 17:39:26;;;;;;;12.57;7.80;;;3.10;99.90;;;;;;4996558;28;20443;-60
2020/12/26 17:41:52;;;;;;;11.20;7.33;;;3.10;99.90;;;;;;5004674;28;20450;-57
2020/12/26 17:44:19;;;;;;;14.80;8.03;;;3.00;99.90;;;;;;5007129;28;20490;-61
2020/12/26 17:46:46;;;;;;;18.30;7.27;;;3.00;99.90;;;;;;5002754;28;20466;-58
2020/12/26 17:49:12;;;;;;;11.07;6.93;;;3.00;99.90;;;;;;4996569;28;20462;-59
2020/12/26 17:51:39;;;;;;;17.47;8.27;;;3.00;99.90;;;;;;5005188;28;20447;-60
2020/12/26 17:54:05;;;;;;;10.17;6.43;;;3.10;99.90;;;;;;5007110;28;20458;-58
2020/12/26 17:56:33;;;;;;;14.97;8.17;;;3.00;99.90;;;;;;4999437;28;20451;-58
2020/12/26 17:58:59;;;;;;;11.97;7.50;;;3.00;99.90;;;;;;5003464;28;20474;-57
2020/12/26 18:01:27;;;;;;;12.03;8.10;;;3.00;99.90;;;;;;4999733;28;20446;-57
2020/12/26 18:03:53;;;;;;;14.03;8.60;;;3.00;99.90;;;;;;5008690;28;20485;-62
2020/12/26 18:06:20;;;;;;;15.83;8.63;;;3.00;99.90;;;;;;5003303;28;20462;-61
2020/12/26 18:08:46;;;;;;;14.80;7.80;;;3.00;99.90;;;;;;5002948;28;20449;-61
2020/12/26 18:11:12;;;;;;;13.23;7.30;;;3.00;99.90;;;;;;4993880;28;20461;-61
2020/12/26 18:13:39;;;;;;;16.37;8.77;;;3.00;99.90;;;;;;4992861;28;20486;-61
2020/12/26 18:16:05;;;;;;;19.93;9.50;;;3.00;99.90;;;;;;4983757;28;20451;-59
2020/12/26 18:18:33;;;;;;;20.47;8.77;;;3.00;99.90;;;;;;4993977;28;20898;-58
2020/12/26 18:20:59;;;;;;;14.50;8.30;;;2.90;99.90;;;;;;5002548;28;20462;-56
2020/12/26 18:23:25;;;;;;;16.53;9.67;;;3.00;99.90;;;;;;5000128;28;20454;-60
2020/12/26 18:25:53;;;;;;;15.83;8.83;;;3.00;99.90;;;;;;4999322;28;20485;-57
2020/12/26 18:28:19;;;;;;;30.27;9.30;;;2.90;99.90;;;;;;4990015;28;20520;-62
2020/12/26 18:30:46;;;;;;;19.97;9.80;;;2.90;99.90;;;;;;4988328;28;20457;-62
2020/12/26 18:33:12;;;;;;;18.37;10.50;;;2.90;99.90;;;;;;4999093;28;20470;-63
2020/12/26 18:35:39;;;;;;;18.33;8.07;;;2.90;99.90;;;;;;4990310;28;20863;-62
2020/12/26 18:38:06;;;;;;;19.77;9.83;;;2.90;99.90;;;;;;4992423;28;20462;-62
2020/12/26 18:40:34;;;;;;;26.97;12.20;;;2.80;99.90;;;;;;4993848;28;20461;-61
2020/12/26 18:43:00;;;;;;;17.50;10.23;;;2.80;99.90;;;;;;5002498;28;20463;-61
2020/12/26 18:45:35;;;;;;;19.40;8.27;;;2.80;99.90;;;;;;5000137;28;20497;-61
2020/12/26 18:48:01;;;;;;;16.40;9.63;;;2.80;99.90;;;;;;5005341;28;20462;-60
2020/12/26 18:50:28;;;;;;;21.63;8.10;;;2.80;99.90;;;;;;4998615;28;20474;-61
2020/12/26 18:52:56;;;;;;;13.40;8.17;;;2.90;99.90;;;;;;4998702;28;20439;-61
2020/12/26 18:55:23;;;;;;;15.83;9.53;;;3.00;99.90;;;;;;5005198;28;20445;-61
2020/12/26 18:57:49;;;;;;;16.03;8.20;;;3.00;99.90;;;;;;5004630;28;20453;-62
2020/12/26 19:00:16;;;;;;;24.27;7.90;;;3.00;99.90;;;;;;5005524;28;20452;-62
2020/12/26 19:02:42;;;;;;;13.50;7.87;;;3.00;99.90;;;;;;5000856;28;20462;-62
2020/12/26 19:05:10;;;;;;;23.30;10.73;;;3.00;99.90;;;;;;5008311;28;20485;-62
2020/12/26 19:07:37;;;;;;;17.63;9.97;;;3.00;99.90;;;;;;4996954;28;20485;-59
2020/12/26 19:10:04;;;;;;;17.80;8.57;;;3.00;99.90;;;;;;4986918;28;20462;-63
2020/12/26 19:12:30;;;;;;;17.47;9.20;;;3.00;99.90;;;;;;4998017;28;20446;-65
2020/12/26 19:14:57;;;;;;;16.80;7.60;;;3.00;99.90;;;;;;4984531;28;20466;-63
2020/12/26 19:17:27;;;;;;;20.17;8.87;;;3.00;99.90;;;;;;4989628;28;20477;-66
2020/12/26 19:19:54;;;;;;;17.63;9.70;;;3.10;99.90;;;;;;4993440;28;20461;-65
2020/12/26 19:22:21;;;;;;;13.30;7.60;;;3.10;99.90;;;;;;4991518;28;20492;-63
2020/12/26 19:24:48;;;;;;;16.50;9.47;;;3.10;99.90;;;;;;4983799;28;20584;-63
2020/12/26 19:27:15;;;;;;;15.47;8.40;;;3.10;99.90;;;;;;4995295;28;21129;-64
2020/12/26 19:29:42;;;;;;;19.47;8.03;;;3.10;99.90;;;;;;4999678;28;20458;-64
2020/12/26 19:32:09;;;;;;;14.33;8.60;;;3.10;99.90;;;;;;5001714;28;20449;-65
2020/12/26 19:34:37;;;;;;;14.20;8.43;;;3.10;99.90;;;;;;4996130;28;20612;-65
2020/12/26 19:37:05;;;;;;;14.17;8.43;;;3.00;99.90;;;;;;4989005;28;21006;-65
2020/12/26 19:39:32;;;;;;;12.80;7.67;;;3.00;99.90;;;;;;5001808;28;20493;-66
2020/12/26 19:41:59;;;;;;;15.10;7.97;;;3.00;99.90;;;;;;5001765;28;20446;-65
2020/12/26 19:44:27;;;;;;;12.73;7.73;;;3.00;99.90;;;;;;5000309;28;20482;-64
2020/12/26 19:46:56;;;;;;;13.07;8.33;;;3.00;99.90;;;;;;4995589;28;20466;-64
2020/12/26 19:49:23;;;;;;;13.07;7.47;;;3.00;99.90;;;;;;4996329;28;20533;-64
2020/12/26 19:51:56;;;;;;;13.00;7.50;;;2.90;99.90;;;;;;4996680;28;20471;-64
2020/12/26 19:54:23;;;;;;;12.40;7.67;;;2.90;99.90;;;;;;4998558;28;20454;-64
2020/12/26 19:56:49;;;;;;;13.47;9.73;;;2.90;99.90;;;;;;4996070;28;20450;-64
2020/12/26 19:59:16;;;;;;;9.10;6.60;;;2.90;99.90;;;;;;4990201;28;20529;-70
2020/12/26 20:01:43;;;;;;;15.20;8.30;;;2.90;99.90;;;;;;4988202;28;20450;-65
2020/12/26 20:04:10;;;;;;;9.90;6.50;;;2.90;99.90;;;;;;4991126;28;20522;-67
2020/12/26 20:06:36;;;;;;;11.87;5.87;;;2.90;99.90;;;;;;4991278;28;20446;-65
2020/12/26 20:09:03;;;;;;;8.80;5.70;;;2.90;99.90;;;;;;4997130;28;20529;-64
2020/12/26 20:11:29;;;;;;;9.83;6.40;;;2.90;99.90;;;;;;4992408;28;20864;-64
2020/12/26 20:13:55;;;;;;;10.93;5.90;;;2.90;99.90;;;;;;4996770;28;20463;-64
2020/12/26 20:16:22;;;;;;;14.33;6.33;;;2.80;99.90;;;;;;4992789;28;20450;-65
2020/12/26 20:18:49;;;;;;;10.53;5.80;;;2.80;99.90;;;;;;5000477;28;20478;-66
2020/12/26 20:21:16;;;;;;;15.63;7.00;;;2.80;99.90;;;;;;5005113;28;20445;-65
2020/12/26 20:23:43;;;;;;;11.73;6.20;;;2.80;99.90;;;;;;5005179;28;20480;-64
2020/12/26 20:26:16;;;;;;;10.73;6.00;;;2.80;99.90;;;;;;5010310;28;20472;-64
2020/12/26 20:28:43;;;;;;;9.57;6.70;;;2.80;99.90;;;;;;5010304;28;20482;-65
2020/12/26 20:31:10;;;;;;;14.57;7.77;;;2.80;99.90;;;;;;5006887;28;20455;-65
2020/12/26 20:33:36;;;;;;;11.70;6.27;;;2.70;99.90;;;;;;5010531;28;20449;-65
2020/12/26 20:36:07;;;;;;;9.60;6.43;;;2.70;99.90;;;;;;5006836;28;20459;-65
2020/12/26 20:38:34;;;;;;;10.47;5.93;;;2.70;99.90;;;;;;5005444;28;20469;-65
2020/12/26 20:41:00;;;;;;;13.10;6.13;;;2.80;99.90;;;;;;5004367;28;20446;-63
2020/12/26 20:43:27;;;;;;;9.37;5.27;;;2.70;99.90;;;;;;5007540;28;20926;-64
2020/12/26 20:45:54;;;;;;;12.47;7.57;;;2.70;99.90;;;;;;5006778;28;20490;-64
2020/12/26 20:48:21;;;;;;;14.67;6.17;;;2.70;99.90;;;;;;5002006;28;20458;-64
2020/12/26 20:50:47;;;;;;;9.13;5.77;;;2.70;99.90;;;;;;5007288;28;20443;-65
2020/12/26 20:53:14;;;;;;;11.47;6.67;;;2.60;99.90;;;;;;5001822;28;20446;-65
2020/12/26 20:55:41;;;;;;;11.83;5.93;;;2.60;99.90;;;;;;5014555;28;20469;-64
2020/12/26 20:58:08;;;;;;;8.30;6.30;;;2.60;99.90;;;;;;5005600;28;20526;-63
2020/12/26 21:00:34;;;;;;;12.73;6.53;;;2.50;99.90;;;;;;5002659;28;20457;-61
2020/12/26 21:03:01;;;;;;;10.63;5.63;;;2.60;99.90;;;;;;5000887;28;20477;-63
2020/12/26 21:05:27;;;;;;;13.77;7.23;;;2.60;99.90;;;;;;5005617;28;20482;-64
2020/12/26 21:07:54;;;;;;;10.63;6.30;;;2.60;99.90;;;;;;4999913;28;20574;-67
2020/12/26 21:10:21;;;;;;;10.37;6.37;;;2.60;99.90;;;;;;4996693;28;20446;-64
2020/12/26 21:12:47;;;;;;;9.50;5.83;;;2.70;99.90;;;;;;5003048;28;20447;-65
2020/12/26 21:15:14;;;;;;;11.40;5.77;;;2.60;99.90;;;;;;5010162;28;20568;-64
2020/12/26 21:17:40;;;;;;;12.07;6.37;;;2.70;99.90;;;;;;5005684;28;20449;-65
2020/12/26 21:20:07;;;;;;;13.53;6.30;;;2.70;99.90;;;;;;5002098;28;20493;-65
2020/12/26 21:22:34;;;;;;;8.00;5.50;;;2.60;99.90;;;;;;5008047;28;20454;-65
2020/12/26 21:25:00;;;;;;;9.70;5.13;;;2.60;99.90;;;;;;4999720;28;20490;-64
2020/12/26 21:27:31;;;;;;;12.33;6.83;;;2.60;99.90;;;;;;5004179;28;20447;-64
2020/12/26 21:29:57;;;;;;;12.90;6.70;;;2.60;99.90;;;;;;4992586;28;20435;-65
2020/12/26 21:32:26;;;;;;;9.90;6.60;;;2.60;99.90;;;;;;5005017;28;20441;-67
2020/12/26 21:34:57;;;;;;;13.63;6.80;;;2.50;99.90;;;;;;5003114;28;20454;-65
2020/12/26 21:37:24;;;;;;;13.30;6.07;;;2.50;99.90;;;;;;5010228;28;20451;-64
2020/12/26 21:39:53;;;;;;;11.70;6.40;;;2.50;99.90;;;;;;5001242;28;20442;-63
2020/12/26 21:42:20;;;;;;;9.40;5.80;;;2.50;99.90;;;;;;5000539;28;20449;-66
2020/12/26 21:44:47;;;;;;;12.47;6.23;;;2.50;99.90;;;;;;4996790;28;20502;-66
2020/12/26 21:47:14;;;;;;;10.90;6.53;;;2.50;99.90;;;;;;5005021;28;20438;-66
2020/12/26 21:49:40;;;;;;;13.27;5.97;;;2.50;99.90;;;;;;4995736;28;20450;-66
2020/12/26 21:52:07;;;;;;;13.70;7.40;;;2.50;99.90;;;;;;5011641;28;20489;-64
2020/12/26 21:54:33;;;;;;;12.60;6.47;;;2.50;99.90;;;;;;5015058;28;20492;-64
2020/12/26 21:57:00;;;;;;;12.20;6.30;;;2.50;99.90;;;;;;5005707;28;20465;-65
2020/12/26 21:59:26;;;;;;;10.50;5.90;;;2.50;99.90;;;;;;5003684;28;20447;-65
2020/12/26 22:01:54;;;;;;;11.30;6.40;;;2.40;99.90;;;;;;4998266;28;20422;-63
2020/12/26 22:04:20;;;;;;;10.37;6.00;;;2.50;99.90;;;;;;5010249;28;20479;-63
2020/12/26 22:06:47;;;;;;;11.67;6.73;;;2.50;99.90;;;;;;4999589;28;20455;-65
2020/12/26 22:09:19;;;;;;;10.50;6.23;;;2.50;99.90;;;;;;4995177;28;20458;-66
2020/12/26 22:11:45;;;;;;;8.47;5.87;;;2.50;99.90;;;;;;5007181;28;20496;-64
2020/12/26 22:14:12;;;;;;;16.60;7.43;;;2.50;99.90;;;;;;5009629;28;20439;-64
2020/12/26 22:16:38;;;;;;;12.47;6.77;;;2.50;99.90;;;;;;5003552;28;20442;-62
2020/12/26 22:19:06;;;;;;;8.37;5.90;;;2.50;99.90;;;;;;5005743;28;20487;-64
2020/12/26 22:21:32;;;;;;;9.30;6.13;;;2.50;99.90;;;;;;5012330;28;20457;-64
2020/12/26 22:24:03;;;;;;;9.27;5.17;;;2.50;99.90;;;;;;5009624;28;20461;-65
2020/12/26 22:26:30;;;;;;;11.67;6.57;;;2.50;99.90;;;;;;4999893;28;20431;-65
2020/12/26 22:28:57;;;;;;;9.53;5.43;;;2.60;99.90;;;;;;4999381;28;20508;-64
2020/12/26 22:31:26;;;;;;;11.20;6.23;;;2.60;99.90;;;;;;5000152;28;20462;-64
2020/12/26 22:34:00;;;;;;;11.83;7.00;;;2.60;99.90;;;;;;4999237;28;20446;-65
2020/12/26 22:36:31;;;;;;;9.07;6.00;;;2.60;99.90;;;;;;4996133;28;20471;-65
2020/12/26 22:39:01;;;;;;;11.93;8.03;;;2.60;99.90;;;;;;4987406;28;20470;-63
2020/12/26 22:41:28;;;;;;;6.87;4.60;;;2.70;99.90;;;;;;4994390;28;20431;-64
2020/12/26 22:43:57;;;;;;;12.00;7.30;;;2.70;99.90;;;;;;4994995;28;20470;-63
2020/12/26 22:46:28;;;;;;;10.47;5.43;;;2.70;99.90;;;;;;4994976;28;20466;-64
2020/12/26 22:48:54;;;;;;;8.43;5.77;;;2.70;99.90;;;;;;4994872;28;20434;-64
2020/12/26 22:51:21;;;;;;;10.50;6.10;;;2.80;99.90;;;;;;4994438;28;20458;-63
2020/12/26 22:53:51;;;;;;;9.10;6.37;;;2.80;99.90;;;;;;4995116;28;20470;-63
2020/12/26 22:56:19;;;;;;;11.90;5.73;;;2.90;99.90;;;;;;4994504;28;20431;-65